YKTN weather

Kyneton Airport
Kyneton, Victoria, Australia

Public forecast

Using degrees Celsius for public forecast. Weather courtesy of forecast.io.

METAR (pilot weather report)

Closest report is Melbourne International Airport, 32.8 nm (60.8 km) SE. Retrieved 2018/10/18 00:30 UTC (29 minutes ago):

YMML 180030Z 33012KT 9999 FEW020 BKN030 BKN050 18/10 Q1014 NOSIG

TAF (pilot weather forecast)

Forecast is more than 6 hours old.

Closest forecast is Melbourne International Airport, 32.8 nm (60.8 km) SE. Retrieved 2018/10/17 18:00 UTC (7 hours ago):

TAF YMML 171710Z 1718/1824 35012KT 9999 -SHRA FEW020 BKN040 FM172000 33014KT 9999 -SHRA SCT040 FM180400 30010KT 9999 -SHRA BKN040 FM181300 36008KT 9999 SCT040 FM182100 36014KT CAVOK